sensor_id;sensor_type;location;lat;lon;timestamp;temperature;humidity
15131;DHT22;7666;50.920;4.628;2024-02-23T00:01:17;6.40;99.90
15131;DHT22;7666;50.920;4.628;2024-02-23T00:04:03;6.40;99.90
15131;DHT22;7666;50.920;4.628;2024-02-23T00:06:52;6.40;99.90
15131;DHT22;7666;50.920;4.628;2024-02-23T00:09:38;6.40;99.90
15131;DHT22;7666;50.920;4.628;2024-02-23T00:12:24;6.40;99.90
15131;DHT22;7666;50.920;4.628;2024-02-23T00:15:10;6.30;99.90
15131;DHT22;7666;50.920;4.628;2024-02-23T00:17:56;6.30;99.90
15131;DHT22;7666;50.920;4.628;2024-02-23T00:20:42;6.30;99.90
15131;DHT22;7666;50.920;4.628;2024-02-23T00:23:28;6.40;99.90
15131;DHT22;7666;50.920;4.628;2024-02-23T00:26:14;6.30;99.90
15131;DHT22;7666;50.920;4.628;2024-02-23T00:29:02;6.30;99.90
15131;DHT22;7666;50.920;4.628;2024-02-23T00:31:48;6.30;99.90
15131;DHT22;7666;50.920;4.628;2024-02-23T00:34:34;6.30;99.90
15131;DHT22;7666;50.920;4.628;2024-02-23T00:37:20;6.30;99.90
15131;DHT22;7666;50.920;4.628;2024-02-23T00:40:06;6.20;99.90
15131;DHT22;7666;50.920;4.628;2024-02-23T00:42:52;6.20;99.90
15131;DHT22;7666;50.920;4.628;2024-02-23T00:45:38;6.20;99.90
15131;DHT22;7666;50.920;4.628;2024-02-23T00:48:24;6.10;99.90
15131;DHT22;7666;50.920;4.628;2024-02-23T00:51:10;6.10;99.90
15131;DHT22;7666;50.920;4.628;2024-02-23T00:53:56;6.10;99.90
15131;DHT22;7666;50.920;4.628;2024-02-23T00:56:42;6.10;99.90
15131;DHT22;7666;50.920;4.628;2024-02-23T00:59:28;6.10;99.90
15131;DHT22;7666;50.920;4.628;2024-02-23T01:02:14;6.10;99.90
15131;DHT22;7666;50.920;4.628;2024-02-23T01:05:00;6.10;99.90
15131;DHT22;7666;50.920;4.628;2024-02-23T01:07:46;6.00;99.90
15131;DHT22;7666;50.920;4.628;2024-02-23T01:10:31;6.00;99.90
15131;DHT22;7666;50.920;4.628;2024-02-23T01:13:17;5.90;99.90
15131;DHT22;7666;50.920;4.628;2024-02-23T01:16:03;5.90;99.90
15131;DHT22;7666;50.920;4.628;2024-02-23T01:18:49;5.90;99.90
15131;DHT22;7666;50.920;4.628;2024-02-23T01:21:35;5.90;99.90
15131;DHT22;7666;50.920;4.628;2024-02-23T01:24:21;5.90;99.90
15131;DHT22;7666;50.920;4.628;2024-02-23T01:27:07;5.90;99.90
15131;DHT22;7666;50.920;4.628;2024-02-23T01:43:11;5.80;99.90
15131;DHT22;7666;50.920;4.628;2024-02-23T01:45:58;5.80;99.90
15131;DHT22;7666;50.920;4.628;2024-02-23T01:48:44;5.80;99.90
15131;DHT22;7666;50.920;4.628;2024-02-23T01:51:31;5.80;99.90
15131;DHT22;7666;50.920;4.628;2024-02-23T01:54:17;5.80;99.90
15131;DHT22;7666;50.920;4.628;2024-02-23T01:57:03;5.80;99.90
15131;DHT22;7666;50.920;4.628;2024-02-23T01:59:49;5.80;99.90
15131;DHT22;7666;50.920;4.628;2024-02-23T02:02:35;5.80;99.90
15131;DHT22;7666;50.920;4.628;2024-02-23T02:05:22;5.80;99.90
15131;DHT22;7666;50.920;4.628;2024-02-23T02:08:08;5.80;99.90
15131;DHT22;7666;50.920;4.628;2024-02-23T02:10:54;5.80;99.90
15131;DHT22;7666;50.920;4.628;2024-02-23T02:13:40;5.90;99.90
15131;DHT22;7666;50.920;4.628;2024-02-23T02:16:26;5.90;99.90
15131;DHT22;7666;50.920;4.628;2024-02-23T02:19:14;6.00;99.90
15131;DHT22;7666;50.920;4.628;2024-02-23T02:22:00;6.00;99.90
15131;DHT22;7666;50.920;4.628;2024-02-23T02:24:46;6.00;99.90
15131;DHT22;7666;50.920;4.628;2024-02-23T02:27:33;5.90;99.90
15131;DHT22;7666;50.920;4.628;2024-02-23T02:30:19;5.90;99.90
15131;DHT22;7666;50.920;4.628;2024-02-23T02:33:05;6.00;99.90
15131;DHT22;7666;50.920;4.628;2024-02-23T02:35:51;6.00;99.90
15131;DHT22;7666;50.920;4.628;2024-02-23T02:38:37;6.00;99.90
15131;DHT22;7666;50.920;4.628;2024-02-23T02:41:28;6.10;99.90
15131;DHT22;7666;50.920;4.628;2024-02-23T02:44:15;6.10;99.90
15131;DHT22;7666;50.920;4.628;2024-02-23T02:47:01;6.10;99.90
15131;DHT22;7666;50.920;4.628;2024-02-23T02:49:48;6.10;99.90
15131;DHT22;7666;50.920;4.628;2024-02-23T02:52:34;6.20;99.90
15131;DHT22;7666;50.920;4.628;2024-02-23T02:55:20;6.20;99.90
15131;DHT22;7666;50.920;4.628;2024-02-23T02:58:06;6.20;99.90
15131;DHT22;7666;50.920;4.628;2024-02-23T03:00:52;6.20;99.90
15131;DHT22;7666;50.920;4.628;2024-02-23T03:03:38;6.20;99.90
15131;DHT22;7666;50.920;4.628;2024-02-23T03:06:24;6.20;99.90
15131;DHT22;7666;50.920;4.628;2024-02-23T03:09:10;6.20;99.90
15131;DHT22;7666;50.920;4.628;2024-02-23T03:11:56;6.20;99.90
15131;DHT22;7666;50.920;4.628;2024-02-23T03:14:43;6.20;99.90
15131;DHT22;7666;50.920;4.628;2024-02-23T03:17:29;6.20;99.90
15131;DHT22;7666;50.920;4.628;2024-02-23T03:20:15;6.20;99.90
15131;DHT22;7666;50.920;4.628;2024-02-23T03:23:01;6.20;99.90
15131;DHT22;7666;50.920;4.628;2024-02-23T03:25:49;6.20;99.90
15131;DHT22;7666;50.920;4.628;2024-02-23T03:28:35;6.20;99.90
15131;DHT22;7666;50.920;4.628;2024-02-23T03:31:21;6.20;99.90
15131;DHT22;7666;50.920;4.628;2024-02-23T03:34:07;6.20;99.90
15131;DHT22;7666;50.920;4.628;2024-02-23T03:36:53;6.20;99.90
15131;DHT22;7666;50.920;4.628;2024-02-23T03:39:39;6.20;99.90
15131;DHT22;7666;50.920;4.628;2024-02-23T03:42:25;6.20;99.90
15131;DHT22;7666;50.920;4.628;2024-02-23T03:45:12;6.20;99.90
15131;DHT22;7666;50.920;4.628;2024-02-23T03:47:58;6.20;99.90
15131;DHT22;7666;50.920;4.628;2024-02-23T03:50:45;6.20;99.90
15131;DHT22;7666;50.920;4.628;2024-02-23T03:53:31;6.20;99.90
15131;DHT22;7666;50.920;4.628;2024-02-23T03:56:17;6.20;99.90
15131;DHT22;7666;50.920;4.628;2024-02-23T03:59:03;6.10;99.90
15131;DHT22;7666;50.920;4.628;2024-02-23T04:01:50;6.20;99.90
15131;DHT22;7666;50.920;4.628;2024-02-23T04:04:36;6.20;99.90
15131;DHT22;7666;50.920;4.628;2024-02-23T04:07:22;6.20;99.90
15131;DHT22;7666;50.920;4.628;2024-02-23T04:10:08;6.20;99.90
15131;DHT22;7666;50.920;4.628;2024-02-23T04:12:54;6.30;99.90
15131;DHT22;7666;50.920;4.628;2024-02-23T04:15:40;6.30;99.90
15131;DHT22;7666;50.920;4.628;2024-02-23T04:18:26;6.30;99.90
15131;DHT22;7666;50.920;4.628;2024-02-23T04:21:12;6.30;99.90
15131;DHT22;7666;50.920;4.628;2024-02-23T04:23:58;6.40;99.90
15131;DHT22;7666;50.920;4.628;2024-02-23T04:26:44;6.30;99.90
15131;DHT22;7666;50.920;4.628;2024-02-23T04:29:30;6.40;99.90
15131;DHT22;7666;50.920;4.628;2024-02-23T04:32:16;6.40;99.90
15131;DHT22;7666;50.920;4.628;2024-02-23T04:35:02;6.40;99.90
15131;DHT22;7666;50.920;4.628;2024-02-23T04:37:48;6.40;99.90
15131;DHT22;7666;50.920;4.628;2024-02-23T04:40:35;6.40;99.90
15131;DHT22;7666;50.920;4.628;2024-02-23T04:43:21;6.40;99.90
15131;DHT22;7666;50.920;4.628;2024-02-23T04:46:07;6.30;99.90
15131;DHT22;7666;50.920;4.628;2024-02-23T04:48:53;6.30;99.90
15131;DHT22;7666;50.920;4.628;2024-02-23T04:51:39;6.30;99.90
15131;DHT22;7666;50.920;4.628;2024-02-23T04:54:25;6.30;99.90
15131;DHT22;7666;50.920;4.628;2024-02-23T04:57:11;6.30;99.90
15131;DHT22;7666;50.920;4.628;2024-02-23T04:59:56;6.30;99.90
15131;DHT22;7666;50.920;4.628;2024-02-23T05:02:42;6.30;99.90
15131;DHT22;7666;50.920;4.628;2024-02-23T05:05:32;6.30;99.90
15131;DHT22;7666;50.920;4.628;2024-02-23T05:08:18;6.30;99.90
15131;DHT22;7666;50.920;4.628;2024-02-23T05:11:04;6.30;99.90
15131;DHT22;7666;50.920;4.628;2024-02-23T05:13:50;6.40;99.90
15131;DHT22;7666;50.920;4.628;2024-02-23T05:16:36;6.40;99.90
15131;DHT22;7666;50.920;4.628;2024-02-23T05:19:22;6.40;99.90
15131;DHT22;7666;50.920;4.628;2024-02-23T05:22:09;6.40;99.90
15131;DHT22;7666;50.920;4.628;2024-02-23T05:24:55;6.40;99.90
15131;DHT22;7666;50.920;4.628;2024-02-23T05:27:41;6.40;99.90
15131;DHT22;7666;50.920;4.628;2024-02-23T05:30:27;6.40;99.90
15131;DHT22;7666;50.920;4.628;2024-02-23T05:33:17;6.40;99.90
15131;DHT22;7666;50.920;4.628;2024-02-23T05:36:07;6.40;99.90
15131;DHT22;7666;50.920;4.628;2024-02-23T05:38:53;6.40;99.90
15131;DHT22;7666;50.920;4.628;2024-02-23T05:41:39;6.40;99.90
15131;DHT22;7666;50.920;4.628;2024-02-23T05:44:25;6.40;99.90
15131;DHT22;7666;50.920;4.628;2024-02-23T05:47:11;6.40;99.90
15131;DHT22;7666;50.920;4.628;2024-02-23T05:49:59;6.40;99.90
15131;DHT22;7666;50.920;4.628;2024-02-23T05:52:45;6.40;99.90
15131;DHT22;7666;50.920;4.628;2024-02-23T05:55:31;6.40;99.90
15131;DHT22;7666;50.920;4.628;2024-02-23T05:58:17;6.40;99.90
15131;DHT22;7666;50.920;4.628;2024-02-23T06:01:03;6.40;99.90
15131;DHT22;7666;50.920;4.628;2024-02-23T06:03:49;6.40;99.90
15131;DHT22;7666;50.920;4.628;2024-02-23T06:06:35;6.40;99.90
15131;DHT22;7666;50.920;4.628;2024-02-23T06:09:21;6.40;99.90
15131;DHT22;7666;50.920;4.628;2024-02-23T06:12:07;6.40;99.90
15131;DHT22;7666;50.920;4.628;2024-02-23T06:14:54;6.40;99.90
15131;DHT22;7666;50.920;4.628;2024-02-23T06:17:42;6.40;99.90
15131;DHT22;7666;50.920;4.628;2024-02-23T06:20:28;6.40;99.90
15131;DHT22;7666;50.920;4.628;2024-02-23T06:23:14;6.40;99.90
15131;DHT22;7666;50.920;4.628;2024-02-23T06:26:00;6.50;99.90
15131;DHT22;7666;50.920;4.628;2024-02-23T06:28:46;6.50;99.90
15131;DHT22;7666;50.920;4.628;2024-02-23T06:31:32;6.50;99.90
15131;DHT22;7666;50.920;4.628;2024-02-23T06:34:20;6.50;99.90
15131;DHT22;7666;50.920;4.628;2024-02-23T06:37:06;6.40;99.90
15131;DHT22;7666;50.920;4.628;2024-02-23T06:39:52;6.50;99.90
15131;DHT22;7666;50.920;4.628;2024-02-23T06:42:40;6.40;99.90
15131;DHT22;7666;50.920;4.628;2024-02-23T06:45:26;6.50;99.90
15131;DHT22;7666;50.920;4.628;2024-02-23T06:48:12;6.50;99.90
15131;DHT22;7666;50.920;4.628;2024-02-23T06:50:58;6.50;99.90
15131;DHT22;7666;50.920;4.628;2024-02-23T06:53:44;6.50;99.90
15131;DHT22;7666;50.920;4.628;2024-02-23T06:56:30;6.50;99.90
15131;DHT22;7666;50.920;4.628;2024-02-23T06:59:15;6.60;99.90
15131;DHT22;7666;50.920;4.628;2024-02-23T07:02:01;6.60;99.90
15131;DHT22;7666;50.920;4.628;2024-02-23T07:04:48;6.60;99.90
15131;DHT22;7666;50.920;4.628;2024-02-23T07:07:34;6.70;99.90
15131;DHT22;7666;50.920;4.628;2024-02-23T07:10:20;6.70;99.90
15131;DHT22;7666;50.920;4.628;2024-02-23T07:13:08;6.70;99.90
15131;DHT22;7666;50.920;4.628;2024-02-23T07:15:54;6.70;99.90
15131;DHT22;7666;50.920;4.628;2024-02-23T07:18:41;6.70;99.90
15131;DHT22;7666;50.920;4.628;2024-02-23T07:21:27;6.70;99.90
15131;DHT22;7666;50.920;4.628;2024-02-23T07:24:13;6.70;99.90
15131;DHT22;7666;50.920;4.628;2024-02-23T07:26:59;6.70;99.90
15131;DHT22;7666;50.920;4.628;2024-02-23T07:29:45;6.70;99.90
15131;DHT22;7666;50.920;4.628;2024-02-23T07:32:31;6.70;99.90
15131;DHT22;7666;50.920;4.628;2024-02-23T07:35:17;6.70;99.90
15131;DHT22;7666;50.920;4.628;2024-02-23T07:38:03;6.70;99.90
15131;DHT22;7666;50.920;4.628;2024-02-23T07:40:49;6.70;99.90
15131;DHT22;7666;50.920;4.628;2024-02-23T07:43:35;6.70;99.90
15131;DHT22;7666;50.920;4.628;2024-02-23T07:46:21;6.80;99.90
15131;DHT22;7666;50.920;4.628;2024-02-23T07:49:09;6.80;99.90
15131;DHT22;7666;50.920;4.628;2024-02-23T07:51:55;6.80;99.90
15131;DHT22;7666;50.920;4.628;2024-02-23T07:54:41;6.80;99.90
15131;DHT22;7666;50.920;4.628;2024-02-23T07:57:27;6.90;99.90
15131;DHT22;7666;50.920;4.628;2024-02-23T08:00:14;6.90;99.90
15131;DHT22;7666;50.920;4.628;2024-02-23T08:03:00;7.00;99.90
15131;DHT22;7666;50.920;4.628;2024-02-23T08:05:46;7.10;99.90
15131;DHT22;7666;50.920;4.628;2024-02-23T08:08:32;7.10;99.90
15131;DHT22;7666;50.920;4.628;2024-02-23T08:11:21;7.20;99.90
15131;DHT22;7666;50.920;4.628;2024-02-23T08:14:07;7.20;99.90
15131;DHT22;7666;50.920;4.628;2024-02-23T08:16:54;7.20;99.90
15131;DHT22;7666;50.920;4.628;2024-02-23T08:19:40;7.20;99.90
15131;DHT22;7666;50.920;4.628;2024-02-23T08:22:26;7.30;99.90
15131;DHT22;7666;50.920;4.628;2024-02-23T08:25:12;7.20;99.90
15131;DHT22;7666;50.920;4.628;2024-02-23T08:27:58;7.20;99.90
15131;DHT22;7666;50.920;4.628;2024-02-23T08:30:45;7.10;99.90
15131;DHT22;7666;50.920;4.628;2024-02-23T08:33:31;7.00;99.90
15131;DHT22;7666;50.920;4.628;2024-02-23T08:36:17;7.00;99.90
15131;DHT22;7666;50.920;4.628;2024-02-23T08:39:03;7.00;99.90
15131;DHT22;7666;50.920;4.628;2024-02-23T08:41:49;7.10;99.90
15131;DHT22;7666;50.920;4.628;2024-02-23T08:44:37;7.10;99.90
15131;DHT22;7666;50.920;4.628;2024-02-23T08:47:24;6.90;99.90
15131;DHT22;7666;50.920;4.628;2024-02-23T08:50:13;6.80;99.90
15131;DHT22;7666;50.920;4.628;2024-02-23T08:53:00;6.80;99.90
15131;DHT22;7666;50.920;4.628;2024-02-23T08:55:46;6.80;99.90
15131;DHT22;7666;50.920;4.628;2024-02-23T08:58:32;6.80;99.90
15131;DHT22;7666;50.920;4.628;2024-02-23T09:01:18;6.80;99.90
15131;DHT22;7666;50.920;4.628;2024-02-23T09:04:04;6.90;99.90
15131;DHT22;7666;50.920;4.628;2024-02-23T09:06:50;6.90;99.90
15131;DHT22;7666;50.920;4.628;2024-02-23T09:09:38;6.80;99.90
15131;DHT22;7666;50.920;4.628;2024-02-23T09:12:24;6.70;99.90
15131;DHT22;7666;50.920;4.628;2024-02-23T09:15:11;6.70;99.90
15131;DHT22;7666;50.920;4.628;2024-02-23T09:17:57;6.70;99.90
15131;DHT22;7666;50.920;4.628;2024-02-23T09:20:43;6.70;99.90
15131;DHT22;7666;50.920;4.628;2024-02-23T09:23:29;6.80;99.90
15131;DHT22;7666;50.920;4.628;2024-02-23T09:26:15;6.80;99.90
15131;DHT22;7666;50.920;4.628;2024-02-23T09:29:01;6.90;99.90
15131;DHT22;7666;50.920;4.628;2024-02-23T09:31:48;6.90;99.90
15131;DHT22;7666;50.920;4.628;2024-02-23T09:34:34;7.00;99.90
15131;DHT22;7666;50.920;4.628;2024-02-23T09:37:20;7.00;99.90
15131;DHT22;7666;50.920;4.628;2024-02-23T09:40:06;7.10;99.90
15131;DHT22;7666;50.920;4.628;2024-02-23T09:42:56;7.10;99.90
15131;DHT22;7666;50.920;4.628;2024-02-23T09:45:43;7.20;99.90
15131;DHT22;7666;50.920;4.628;2024-02-23T09:48:29;7.20;99.90
15131;DHT22;7666;50.920;4.628;2024-02-23T09:51:19;7.40;99.90
15131;DHT22;7666;50.920;4.628;2024-02-23T09:54:07;7.70;99.90
15131;DHT22;7666;50.920;4.628;2024-02-23T09:56:53;7.80;99.90
15131;DHT22;7666;50.920;4.628;2024-02-23T09:59:39;7.90;99.90
15131;DHT22;7666;50.920;4.628;2024-02-23T10:02:25;8.00;99.90
15131;DHT22;7666;50.920;4.628;2024-02-23T10:05:11;8.30;99.90
15131;DHT22;7666;50.920;4.628;2024-02-23T10:08:00;8.40;99.90
15131;DHT22;7666;50.920;4.628;2024-02-23T10:10:46;8.60;99.90
15131;DHT22;7666;50.920;4.628;2024-02-23T10:13:33;8.70;99.90
15131;DHT22;7666;50.920;4.628;2024-02-23T10:16:20;8.60;99.90
15131;DHT22;7666;50.920;4.628;2024-02-23T10:19:06;8.60;99.90
15131;DHT22;7666;50.920;4.628;2024-02-23T10:21:52;8.40;99.90
15131;DHT22;7666;50.920;4.628;2024-02-23T10:24:38;8.40;99.90
15131;DHT22;7666;50.920;4.628;2024-02-23T10:27:24;8.40;99.90
15131;DHT22;7666;50.920;4.628;2024-02-23T10:30:10;8.40;99.90
15131;DHT22;7666;50.920;4.628;2024-02-23T10:33:00;8.40;99.90
15131;DHT22;7666;50.920;4.628;2024-02-23T10:35:47;8.50;99.90
15131;DHT22;7666;50.920;4.628;2024-02-23T10:38:35;8.80;99.90
15131;DHT22;7666;50.920;4.628;2024-02-23T10:41:23;9.10;99.90
15131;DHT22;7666;50.920;4.628;2024-02-23T10:44:11;9.20;99.90
15131;DHT22;7666;50.920;4.628;2024-02-23T10:46:58;9.10;99.90
15131;DHT22;7666;50.920;4.628;2024-02-23T10:49:48;9.00;99.90
15131;DHT22;7666;50.920;4.628;2024-02-23T10:52:35;9.10;99.90
15131;DHT22;7666;50.920;4.628;2024-02-23T10:55:23;9.10;99.90
15131;DHT22;7666;50.920;4.628;2024-02-23T10:58:11;9.20;99.90
15131;DHT22;7666;50.920;4.628;2024-02-23T11:01:00;9.20;99.90
15131;DHT22;7666;50.920;4.628;2024-02-23T11:03:47;9.10;99.90
15131;DHT22;7666;50.920;4.628;2024-02-23T11:06:36;9.00;99.90
15131;DHT22;7666;50.920;4.628;2024-02-23T11:09:24;8.90;99.90
15131;DHT22;7666;50.920;4.628;2024-02-23T11:12:10;8.90;99.90
15131;DHT22;7666;50.920;4.628;2024-02-23T11:15:00;9.00;99.90
15131;DHT22;7666;50.920;4.628;2024-02-23T11:17:49;8.90;99.90
15131;DHT22;7666;50.920;4.628;2024-02-23T11:20:37;8.90;99.90
15131;DHT22;7666;50.920;4.628;2024-02-23T11:23:23;9.00;99.90
15131;DHT22;7666;50.920;4.628;2024-02-23T11:26:10;8.90;99.90
15131;DHT22;7666;50.920;4.628;2024-02-23T11:28:56;8.90;99.90
15131;DHT22;7666;50.920;4.628;2024-02-23T11:31:45;9.00;99.90
15131;DHT22;7666;50.920;4.628;2024-02-23T11:34:34;9.00;99.90
15131;DHT22;7666;50.920;4.628;2024-02-23T11:37:20;8.90;99.90
15131;DHT22;7666;50.920;4.628;2024-02-23T11:40:07;8.80;99.90
15131;DHT22;7666;50.920;4.628;2024-02-23T11:42:56;8.80;99.90
15131;DHT22;7666;50.920;4.628;2024-02-23T11:45:42;8.80;99.90
15131;DHT22;7666;50.920;4.628;2024-02-23T11:48:29;8.80;99.90
15131;DHT22;7666;50.920;4.628;2024-02-23T11:51:15;8.80;99.90
15131;DHT22;7666;50.920;4.628;2024-02-23T11:54:01;8.90;99.90
15131;DHT22;7666;50.920;4.628;2024-02-23T11:56:48;9.00;99.90
15131;DHT22;7666;50.920;4.628;2024-02-23T11:59:35;9.10;99.90
15131;DHT22;7666;50.920;4.628;2024-02-23T12:02:21;9.30;99.90
15131;DHT22;7666;50.920;4.628;2024-02-23T12:05:07;9.30;99.90
15131;DHT22;7666;50.920;4.628;2024-02-23T12:07:53;9.40;99.90
15131;DHT22;7666;50.920;4.628;2024-02-23T12:10:39;9.60;99.90
15131;DHT22;7666;50.920;4.628;2024-02-23T12:13:26;9.50;99.90
15131;DHT22;7666;50.920;4.628;2024-02-23T12:16:13;9.40;99.90
15131;DHT22;7666;50.920;4.628;2024-02-23T12:19:01;9.40;99.90
15131;DHT22;7666;50.920;4.628;2024-02-23T12:21:47;9.40;99.90
15131;DHT22;7666;50.920;4.628;2024-02-23T12:24:34;9.40;99.90
15131;DHT22;7666;50.920;4.628;2024-02-23T12:27:20;9.60;99.90
15131;DHT22;7666;50.920;4.628;2024-02-23T12:30:14;9.80;99.90
15131;DHT22;7666;50.920;4.628;2024-02-23T12:33:07;10.20;99.90
15131;DHT22;7666;50.920;4.628;2024-02-23T12:35:58;10.50;99.90
15131;DHT22;7666;50.920;4.628;2024-02-23T12:38:44;10.60;99.90
15131;DHT22;7666;50.920;4.628;2024-02-23T12:41:30;10.40;99.90
15131;DHT22;7666;50.920;4.628;2024-02-23T12:44:16;10.40;99.90
15131;DHT22;7666;50.920;4.628;2024-02-23T12:47:02;10.60;99.90
15131;DHT22;7666;50.920;4.628;2024-02-23T12:49:48;10.80;99.90
15131;DHT22;7666;50.920;4.628;2024-02-23T12:52:34;10.90;99.90
15131;DHT22;7666;50.920;4.628;2024-02-23T12:55:20;10.60;99.90
15131;DHT22;7666;50.920;4.628;2024-02-23T12:58:06;10.30;99.90
15131;DHT22;7666;50.920;4.628;2024-02-23T13:00:52;10.20;99.90
15131;DHT22;7666;50.920;4.628;2024-02-23T13:03:39;10.20;99.90
15131;DHT22;7666;50.920;4.628;2024-02-23T13:06:28;10.20;99.90
15131;DHT22;7666;50.920;4.628;2024-02-23T13:09:14;10.10;99.90
15131;DHT22;7666;50.920;4.628;2024-02-23T13:12:00;10.00;99.90
15131;DHT22;7666;50.920;4.628;2024-02-23T13:14:46;9.90;99.90
15131;DHT22;7666;50.920;4.628;2024-02-23T13:17:32;9.80;99.90
15131;DHT22;7666;50.920;4.628;2024-02-23T13:20:18;9.90;99.90
15131;DHT22;7666;50.920;4.628;2024-02-23T13:23:04;9.90;99.90
15131;DHT22;7666;50.920;4.628;2024-02-23T13:25:53;10.10;99.90
15131;DHT22;7666;50.920;4.628;2024-02-23T13:28:39;10.00;99.90
15131;DHT22;7666;50.920;4.628;2024-02-23T13:31:25;9.90;99.90
15131;DHT22;7666;50.920;4.628;2024-02-23T13:34:11;9.80;99.90
15131;DHT22;7666;50.920;4.628;2024-02-23T13:36:57;9.90;99.90
15131;DHT22;7666;50.920;4.628;2024-02-23T13:39:43;10.00;99.90
15131;DHT22;7666;50.920;4.628;2024-02-23T13:42:30;10.00;99.90
15131;DHT22;7666;50.920;4.628;2024-02-23T13:45:16;10.00;99.90
15131;DHT22;7666;50.920;4.628;2024-02-23T13:48:03;10.30;99.90
15131;DHT22;7666;50.920;4.628;2024-02-23T13:50:51;10.30;99.90
15131;DHT22;7666;50.920;4.628;2024-02-23T13:53:37;10.30;99.90
15131;DHT22;7666;50.920;4.628;2024-02-23T13:56:23;10.30;99.90
15131;DHT22;7666;50.920;4.628;2024-02-23T13:59:09;10.30;99.90
15131;DHT22;7666;50.920;4.628;2024-02-23T14:01:55;10.20;99.90
15131;DHT22;7666;50.920;4.628;2024-02-23T14:04:41;10.10;99.90
15131;DHT22;7666;50.920;4.628;2024-02-23T14:07:27;10.00;99.90
15131;DHT22;7666;50.920;4.628;2024-02-23T14:10:13;10.00;99.90
15131;DHT22;7666;50.920;4.628;2024-02-23T14:12:59;10.10;99.90
15131;DHT22;7666;50.920;4.628;2024-02-23T14:15:45;10.10;99.90
15131;DHT22;7666;50.920;4.628;2024-02-23T14:18:32;10.10;99.90
15131;DHT22;7666;50.920;4.628;2024-02-23T14:21:22;10.00;99.90
15131;DHT22;7666;50.920;4.628;2024-02-23T14:24:10;10.00;99.90
15131;DHT22;7666;50.920;4.628;2024-02-23T14:26:56;10.00;99.90
15131;DHT22;7666;50.920;4.628;2024-02-23T14:29:42;10.10;99.90
15131;DHT22;7666;50.920;4.628;2024-02-23T14:32:28;10.10;99.90
15131;DHT22;7666;50.920;4.628;2024-02-23T14:35:14;10.00;99.90
15131;DHT22;7666;50.920;4.628;2024-02-23T14:38:00;10.00;99.90
15131;DHT22;7666;50.920;4.628;2024-02-23T14:40:46;9.90;99.90
15131;DHT22;7666;50.920;4.628;2024-02-23T14:43:32;9.80;99.90
15131;DHT22;7666;50.920;4.628;2024-02-23T14:46:18;9.80;99.90
15131;DHT22;7666;50.920;4.628;2024-02-23T14:49:05;9.90;99.90
15131;DHT22;7666;50.920;4.628;2024-02-23T14:51:51;9.90;99.90
15131;DHT22;7666;50.920;4.628;2024-02-23T14:54:37;9.80;99.90
15131;DHT22;7666;50.920;4.628;2024-02-23T14:57:23;9.80;99.90
15131;DHT22;7666;50.920;4.628;2024-02-23T15:00:09;9.70;99.90
15131;DHT22;7666;50.920;4.628;2024-02-23T15:02:56;9.80;99.90
15131;DHT22;7666;50.920;4.628;2024-02-23T15:05:45;9.80;99.90
15131;DHT22;7666;50.920;4.628;2024-02-23T15:08:31;9.80;99.90
15131;DHT22;7666;50.920;4.628;2024-02-23T15:11:17;9.80;99.90
15131;DHT22;7666;50.920;4.628;2024-02-23T15:14:03;9.90;99.90
15131;DHT22;7666;50.920;4.628;2024-02-23T15:16:50;10.10;99.90
15131;DHT22;7666;50.920;4.628;2024-02-23T15:19:36;10.10;99.90
15131;DHT22;7666;50.920;4.628;2024-02-23T15:22:22;10.10;99.90
15131;DHT22;7666;50.920;4.628;2024-02-23T15:25:08;10.00;99.90
15131;DHT22;7666;50.920;4.628;2024-02-23T15:27:55;10.00;99.90
15131;DHT22;7666;50.920;4.628;2024-02-23T15:30:43;10.00;99.90
15131;DHT22;7666;50.920;4.628;2024-02-23T15:33:29;9.90;99.90
15131;DHT22;7666;50.920;4.628;2024-02-23T15:36:15;9.90;99.90
15131;DHT22;7666;50.920;4.628;2024-02-23T15:39:01;9.90;99.90
15131;DHT22;7666;50.920;4.628;2024-02-23T15:41:49;9.80;99.90
15131;DHT22;7666;50.920;4.628;2024-02-23T15:44:35;9.60;99.90
15131;DHT22;7666;50.920;4.628;2024-02-23T15:47:22;9.50;99.90
15131;DHT22;7666;50.920;4.628;2024-02-23T15:50:08;9.50;99.90
15131;DHT22;7666;50.920;4.628;2024-02-23T15:52:54;9.50;99.90
15131;DHT22;7666;50.920;4.628;2024-02-23T15:55:41;9.40;99.90
15131;DHT22;7666;50.920;4.628;2024-02-23T15:58:27;9.40;99.90
15131;DHT22;7666;50.920;4.628;2024-02-23T16:01:13;9.40;99.90
15131;DHT22;7666;50.920;4.628;2024-02-23T16:03:59;9.30;99.90
15131;DHT22;7666;50.920;4.628;2024-02-23T16:06:45;9.30;99.90
15131;DHT22;7666;50.920;4.628;2024-02-23T16:09:31;9.30;99.90
15131;DHT22;7666;50.920;4.628;2024-02-23T16:12:17;9.30;99.90
15131;DHT22;7666;50.920;4.628;2024-02-23T16:15:03;9.30;99.90
15131;DHT22;7666;50.920;4.628;2024-02-23T16:17:49;9.30;99.90
15131;DHT22;7666;50.920;4.628;2024-02-23T16:20:37;9.40;99.90
15131;DHT22;7666;50.920;4.628;2024-02-23T16:23:23;9.40;99.90
15131;DHT22;7666;50.920;4.628;2024-02-23T16:26:09;9.40;99.90
15131;DHT22;7666;50.920;4.628;2024-02-23T16:28:55;9.40;99.90
15131;DHT22;7666;50.920;4.628;2024-02-23T16:31:43;9.40;99.90
15131;DHT22;7666;50.920;4.628;2024-02-23T16:34:29;9.30;99.90
15131;DHT22;7666;50.920;4.628;2024-02-23T16:37:17;9.30;99.90
15131;DHT22;7666;50.920;4.628;2024-02-23T16:40:04;9.30;99.90
15131;DHT22;7666;50.920;4.628;2024-02-23T16:42:50;9.30;99.90
15131;DHT22;7666;50.920;4.628;2024-02-23T16:45:36;9.30;99.90
15131;DHT22;7666;50.920;4.628;2024-02-23T16:48:22;9.20;99.90
15131;DHT22;7666;50.920;4.628;2024-02-23T16:51:08;9.20;99.90
15131;DHT22;7666;50.920;4.628;2024-02-23T16:53:54;9.10;99.90
15131;DHT22;7666;50.920;4.628;2024-02-23T16:56:40;9.00;99.90
15131;DHT22;7666;50.920;4.628;2024-02-23T16:59:26;9.00;99.90
15131;DHT22;7666;50.920;4.628;2024-02-23T17:02:12;8.90;99.90
15131;DHT22;7666;50.920;4.628;2024-02-23T17:04:58;8.90;99.90
15131;DHT22;7666;50.920;4.628;2024-02-23T17:07:46;8.80;99.90
15131;DHT22;7666;50.920;4.628;2024-02-23T17:10:32;8.80;99.90
15131;DHT22;7666;50.920;4.628;2024-02-23T17:13:18;8.70;99.90
15131;DHT22;7666;50.920;4.628;2024-02-23T17:16:04;8.70;99.90
15131;DHT22;7666;50.920;4.628;2024-02-23T17:18:50;8.70;99.90
15131;DHT22;7666;50.920;4.628;2024-02-23T17:21:36;8.60;99.90
15131;DHT22;7666;50.920;4.628;2024-02-23T17:24:22;8.60;99.90
15131;DHT22;7666;50.920;4.628;2024-02-23T17:27:08;8.60;99.90
15131;DHT22;7666;50.920;4.628;2024-02-23T17:29:54;8.50;99.90
15131;DHT22;7666;50.920;4.628;2024-02-23T17:32:40;8.50;99.90
15131;DHT22;7666;50.920;4.628;2024-02-23T17:35:26;8.50;99.90
15131;DHT22;7666;50.920;4.628;2024-02-23T17:38:12;8.50;99.90
15131;DHT22;7666;50.920;4.628;2024-02-23T17:40:58;8.50;99.90
15131;DHT22;7666;50.920;4.628;2024-02-23T17:43:44;8.50;99.90
15131;DHT22;7666;50.920;4.628;2024-02-23T17:46:31;8.50;99.90
15131;DHT22;7666;50.920;4.628;2024-02-23T17:49:17;8.50;99.90
15131;DHT22;7666;50.920;4.628;2024-02-23T17:52:05;8.50;99.90
15131;DHT22;7666;50.920;4.628;2024-02-23T17:54:51;8.50;99.90
15131;DHT22;7666;50.920;4.628;2024-02-23T17:57:37;8.50;99.90
15131;DHT22;7666;50.920;4.628;2024-02-23T18:00:23;8.40;99.90
15131;DHT22;7666;50.920;4.628;2024-02-23T18:03:08;8.40;99.90
15131;DHT22;7666;50.920;4.628;2024-02-23T18:05:56;8.40;99.90
15131;DHT22;7666;50.920;4.628;2024-02-23T18:08:41;8.40;99.90
15131;DHT22;7666;50.920;4.628;2024-02-23T18:11:27;8.30;99.90
15131;DHT22;7666;50.920;4.628;2024-02-23T18:14:14;8.30;99.90
15131;DHT22;7666;50.920;4.628;2024-02-23T18:17:00;8.20;99.90